Time;durP1;ratioP1;P1;durP2;ratioP2;P2;SDS_P1;SDS_P2;PMS_P1;PMS_P2;Temp;Humidity;BMP_temperature;BMP_pressure;BME280_temperature;BME280_humidity;BME280_pressure;Samples;Min_cycle;Max_cycle;Signal;HPM_P1;HPM_P2
2022/10/15 00:00:48;;;;;;;0.20;0.20;;;12.60;99.90;;;;;;4856736;29;20055;-56
2022/10/15 00:03:15;;;;;;;1.77;0.40;;;12.60;99.90;;;;;;4851434;29;20061;-53
2022/10/15 00:05:42;;;;;;;3.60;0.40;;;12.60;99.90;;;;;;4849525;29;20144;-51
2022/10/15 00:08:10;;;;;;;0.77;0.30;;;12.60;99.90;;;;;;4853487;29;20062;-56
2022/10/15 00:10:37;;;;;;;1.15;0.30;;;12.70;99.90;;;;;;4850151;29;20621;-55
2022/10/15 00:13:05;;;;;;;0.30;0.30;;;12.70;99.90;;;;;;4851611;29;20430;-53
2022/10/15 00:15:34;;;;;;;0.20;0.20;;;12.70;99.90;;;;;;4857179;29;20052;-55
2022/10/15 00:18:01;;;;;;;0.30;0.30;;;12.70;99.90;;;;;;4851866;29;20187;-52
2022/10/15 00:20:27;;;;;;;0.30;0.30;;;12.70;99.90;;;;;;4852079;29;20048;-52
2022/10/15 00:22:54;;;;;;;;;;;12.70;99.90;;;;;;4852880;29;20112;-48
2022/10/15 00:25:21;;;;;;;0.73;0.38;;;12.70;99.90;;;;;;4853892;29;20027;-54
2022/10/15 00:27:48;;;;;;;0.50;0.30;;;12.70;99.90;;;;;;4854320;29;20056;-54
2022/10/15 00:30:15;;;;;;;0.55;0.40;;;12.70;99.90;;;;;;4859096;29;20060;-54
2022/10/15 00:32:43;;;;;;;0.32;0.20;;;12.70;99.90;;;;;;4852705;29;20526;-50
2022/10/15 00:35:09;;;;;;;0.20;0.20;;;12.70;99.90;;;;;;4854621;29;20045;-53
2022/10/15 00:37:36;;;;;;;;;;;12.70;99.90;;;;;;4856230;29;20055;-55
2022/10/15 00:40:03;;;;;;;3.47;0.30;;;12.70;99.90;;;;;;4853840;29;20759;-49
2022/10/15 00:42:31;;;;;;;0.65;0.40;;;12.70;99.90;;;;;;4853675;29;20052;-51
2022/10/15 00:44:59;;;;;;;;;;;12.80;99.90;;;;;;4851980;29;20060;-54
2022/10/15 00:47:37;;;;;;;2.47;0.30;;;12.70;99.90;;;;;;4852629;29;19927;-53
2022/10/15 00:50:13;;;;;;;0.60;0.40;;;12.80;99.90;;;;;;4839854;29;20125;-53
2022/10/15 00:52:45;;;;;;;0.40;0.40;;;12.80;99.90;;;;;;4849650;29;20151;-50
2022/10/15 00:55:26;;;;;;;0.30;0.30;;;12.90;99.90;;;;;;4852417;29;20133;-55
2022/10/15 00:57:56;;;;;;;0.25;0.25;;;12.90;99.90;;;;;;4854660;29;20516;-53
2022/10/15 01:00:23;;;;;;;0.32;0.32;;;12.90;99.90;;;;;;4853647;29;20092;-53
2022/10/15 01:02:50;;;;;;;;;;;13.00;99.90;;;;;;4856140;29;20054;-53
2022/10/15 01:05:17;;;;;;;0.73;0.20;;;13.00;99.90;;;;;;4857447;29;19932;-53
2022/10/15 01:07:44;;;;;;;0.20;0.20;;;13.00;99.90;;;;;;4858634;29;20055;-51
2022/10/15 01:10:13;;;;;;;5.10;0.55;;;13.10;99.90;;;;;;4854342;29;20053;-55
2022/10/15 01:13:09;;;;;;;1.17;0.40;;;13.00;99.90;;;;;;4854071;29;20124;-53
2022/10/15 01:16:00;;;;;;;2.97;0.40;;;13.10;99.90;;;;;;4857330;29;20045;-54
2022/10/15 01:18:35;;;;;;;0.47;0.47;;;13.00;99.90;;;;;;4859011;29;20037;-53
2022/10/15 01:21:20;;;;;;;0.55;0.50;;;13.00;99.90;;;;;;4858323;29;20052;-53
2022/10/15 01:24:21;;;;;;;0.50;0.50;;;13.00;99.90;;;;;;4857913;29;20056;-51
2022/10/15 01:26:54;;;;;;;0.30;0.30;;;13.10;99.90;;;;;;4854580;29;20666;-55
2022/10/15 01:29:29;;;;;;;3.17;0.40;;;13.10;99.90;;;;;;4859706;29;20076;-53
2022/10/15 01:32:04;;;;;;;3.17;0.30;;;13.10;99.90;;;;;;4857111;29;20159;-56
2022/10/15 01:34:44;;;;;;;0.30;0.22;;;13.10;99.90;;;;;;4848540;29;20065;-48
2022/10/15 01:37:53;;;;;;;0.50;0.40;;;13.10;99.90;;;;;;4857026;29;20041;-52
2022/10/15 01:40:49;;;;;;;0.95;0.50;;;13.20;99.90;;;;;;4837288;29;20849;-53
2022/10/15 01:43:31;;;;;;;0.50;0.22;;;13.20;99.90;;;;;;4857658;29;20065;-53
2022/10/15 01:46:25;;;;;;;0.20;0.20;;;13.20;99.90;;;;;;4854921;29;20716;-53
2022/10/15 01:49:09;;;;;;;0.45;0.20;;;13.30;99.90;;;;;;4857878;29;20776;-53
2022/10/15 01:51:38;;;;;;;3.20;0.20;;;13.30;99.90;;;;;;4855608;29;20815;-53
2022/10/15 01:54:09;;;;;;;0.30;0.20;;;13.30;99.90;;;;;;4850383;29;20053;-53
2022/10/15 01:56:37;;;;;;;0.52;0.47;;;13.30;99.90;;;;;;4856117;29;20052;-52
2022/10/15 01:59:05;;;;;;;2.72;0.63;;;13.30;99.90;;;;;;4854474;29;20738;-56
2022/10/15 02:01:32;;;;;;;0.32;0.32;;;13.30;99.90;;;;;;4850713;29;20785;-52
2022/10/15 02:03:59;;;;;;;2.78;0.38;;;13.30;99.90;;;;;;4855722;29;20484;-54
2022/10/15 02:06:40;;;;;;;0.57;0.40;;;13.30;99.90;;;;;;4855981;29;20045;-51
2022/10/15 02:09:21;;;;;;;0.30;0.30;;;13.30;99.90;;;;;;4857992;29;20145;-54
2022/10/15 02:11:48;;;;;;;0.22;0.22;;;13.30;99.90;;;;;;4855296;29;20049;-53
2022/10/15 02:14:16;;;;;;;;;;;13.30;99.90;;;;;;4855503;29;20049;-52
2022/10/15 02:17:08;;;;;;;4.80;0.70;;;13.20;99.90;;;;;;4856653;29;20066;-56
2022/10/15 02:19:35;;;;;;;0.30;0.30;;;13.20;99.90;;;;;;4862766;29;20060;-49
2022/10/15 02:22:05;;;;;;;;;;;13.20;99.90;;;;;;4860143;29;20131;-55
2022/10/15 02:24:38;;;;;;;0.20;0.20;;;13.20;99.90;;;;;;4853182;29;20048;-53
2022/10/15 02:27:06;;;;;;;0.38;0.38;;;13.20;99.90;;;;;;4855620;29;20053;-52
2022/10/15 02:29:37;;;;;;;0.50;0.50;;;13.20;99.90;;;;;;4849995;29;20045;-51
2022/10/15 02:32:06;;;;;;;2.38;0.40;;;13.30;99.90;;;;;;4854935;29;20080;-54
2022/10/15 02:34:34;;;;;;;1.75;0.80;;;13.20;99.90;;;;;;4854236;29;20051;-53
2022/10/15 02:37:03;;;;;;;1.00;0.63;;;13.20;99.90;;;;;;4852383;29;20040;-50
2022/10/15 02:39:33;;;;;;;0.60;0.35;;;13.20;99.90;;;;;;4855900;29;20060;-51
2022/10/15 02:42:00;;;;;;;0.30;0.30;;;13.20;99.90;;;;;;4859112;29;20700;-55
2022/10/15 02:44:27;;;;;;;1.00;0.43;;;13.20;99.90;;;;;;4861337;29;20049;-56
2022/10/15 02:46:54;;;;;;;;;;;13.20;99.90;;;;;;4856964;29;20749;-52
2022/10/15 02:49:22;;;;;;;1.38;0.38;;;13.20;99.90;;;;;;4853382;29;20050;-53
2022/10/15 02:51:50;;;;;;;1.67;0.60;;;13.20;99.90;;;;;;4851678;29;20780;-54
2022/10/15 02:54:16;;;;;;;;;;;13.20;99.90;;;;;;4853195;29;20416;-55
2022/10/15 02:56:46;;;;;;;2.83;0.40;;;13.20;99.90;;;;;;4833080;29;20485;-56
2022/10/15 02:59:13;;;;;;;0.20;0.20;;;13.20;99.90;;;;;;4838795;29;20052;-55
2022/10/15 03:01:40;;;;;;;5.13;0.40;;;13.20;99.90;;;;;;4850517;29;20519;-53
2022/10/15 03:04:08;;;;;;;0.30;0.30;;;13.20;99.90;;;;;;4858160;29;20424;-56
2022/10/15 03:06:36;;;;;;;0.57;0.40;;;13.10;99.90;;;;;;4851645;29;20674;-53
2022/10/15 03:09:03;;;;;;;0.38;0.38;;;13.10;99.90;;;;;;4853881;29;20059;-52
2022/10/15 03:11:31;;;;;;;4.32;0.60;;;13.10;99.90;;;;;;4848584;29;20049;-55
2022/10/15 03:13:58;;;;;;;0.52;0.52;;;13.10;99.90;;;;;;4851139;29;20040;-54
2022/10/15 03:16:24;;;;;;;;;;;13.10;99.90;;;;;;4854646;29;20043;-51
2022/10/15 03:18:51;;;;;;;6.50;0.40;;;13.10;99.90;;;;;;4853453;29;20295;-54
2022/10/15 03:21:18;;;;;;;5.03;0.43;;;13.10;99.90;;;;;;4855658;29;20052;-52
2022/10/15 03:23:46;;;;;;;1.20;0.43;;;13.10;99.90;;;;;;4850741;29;20052;-57
2022/10/15 03:26:17;;;;;;;3.22;0.68;;;13.10;99.90;;;;;;4856012;29;20059;-52
2022/10/15 03:28:44;;;;;;;;;;;13.10;99.90;;;;;;4853668;29;20427;-52
2022/10/15 03:31:18;;;;;;;1.83;0.40;;;13.10;99.90;;;;;;4836604;29;20614;-54
2022/10/15 03:33:47;;;;;;;1.65;0.35;;;13.10;99.90;;;;;;4853292;29;21133;-54
2022/10/15 03:36:16;;;;;;;0.30;0.30;;;13.10;99.90;;;;;;4852999;29;20596;-54
2022/10/15 03:38:43;;;;;;;6.13;0.57;;;13.10;99.90;;;;;;4855522;29;20131;-55
2022/10/15 03:41:12;;;;;;;0.98;0.43;;;13.10;99.90;;;;;;4853339;29;20076;-53
2022/10/15 03:43:40;;;;;;;1.17;0.30;;;13.20;99.90;;;;;;4837237;29;20507;-54
2022/10/15 03:46:09;;;;;;;0.70;0.65;;;13.10;99.90;;;;;;4838890;29;20062;-57
2022/10/15 03:48:40;;;;;;;5.40;0.55;;;13.10;99.90;;;;;;4836735;29;20060;-52
2022/10/15 03:51:08;;;;;;;4.90;0.55;;;13.10;99.90;;;;;;4846813;29;20140;-52
2022/10/15 03:53:37;;;;;;;0.17;0.17;;;13.10;99.90;;;;;;4848334;29;20042;-55
2022/10/15 03:56:05;;;;;;;4.80;2.17;;;13.20;99.90;;;;;;4847884;29;20045;-54
2022/10/15 03:58:36;;;;;;;1.17;0.70;;;13.20;99.90;;;;;;4855164;29;20051;-54
2022/10/15 04:01:09;;;;;;;9.73;0.50;;;13.20;99.90;;;;;;4847291;29;20052;-53
2022/10/15 04:03:37;;;;;;;4.22;0.28;;;13.30;99.90;;;;;;4853453;29;20048;-55
2022/10/15 04:06:04;;;;;;;1.95;0.45;;;13.40;99.90;;;;;;4852993;29;20634;-52
2022/10/15 04:08:31;;;;;;;2.25;0.47;;;13.40;99.90;;;;;;4849936;29;20060;-56
2022/10/15 04:10:58;;;;;;;0.30;0.22;;;13.40;99.90;;;;;;4852147;29;20838;-54
2022/10/15 04:13:26;;;;;;;0.43;0.30;;;13.40;99.90;;;;;;4847740;29;20556;-54
2022/10/15 04:15:54;;;;;;;1.15;0.30;;;13.40;99.90;;;;;;4855340;29;20124;-52
2022/10/15 04:18:21;;;;;;;0.20;0.20;;;13.40;99.90;;;;;;4856200;29;20049;-53
2022/10/15 04:20:52;;;;;;;0.40;0.40;;;13.40;99.90;;;;;;4852461;29;20045;-55
2022/10/15 04:23:21;;;;;;;0.20;0.20;;;13.50;99.90;;;;;;4854369;29;20718;-51
2022/10/15 04:26:07;;;;;;;3.80;0.30;;;13.50;99.90;;;;;;4851075;29;20064;-56
2022/10/15 04:28:35;;;;;;;4.03;0.30;;;13.40;99.90;;;;;;4853388;29;20113;-56
2022/10/15 04:31:02;;;;;;;0.85;0.30;;;13.40;99.90;;;;;;4857689;29;20132;-53
2022/10/15 04:33:29;;;;;;;0.95;0.40;;;13.40;99.90;;;;;;4857584;29;20049;-50
2022/10/15 04:36:07;;;;;;;0.95;0.30;;;13.40;99.90;;;;;;4841319;29;20178;-51
2022/10/15 04:38:46;;;;;;;;;;;13.40;99.90;;;;;;4858989;29;20863;-52
2022/10/15 04:41:20;;;;;;;4.22;0.43;;;13.40;99.90;;;;;;4855871;29;19930;-51
2022/10/15 04:44:10;;;;;;;0.77;0.30;;;13.40;99.90;;;;;;4850021;29;20129;-53
2022/10/15 04:46:38;;;;;;;0.90;0.45;;;13.50;99.90;;;;;;4853021;29;20046;-54
2022/10/15 04:49:25;;;;;;;0.20;0.20;;;13.50;99.90;;;;;;4850967;29;20052;-50
2022/10/15 04:51:52;;;;;;;0.77;0.40;;;13.50;99.90;;;;;;4859422;29;20132;-52
2022/10/15 04:54:54;;;;;;;1.23;0.40;;;13.50;99.90;;;;;;4848515;29;20052;-53
2022/10/15 04:57:21;;;;;;;;;;;13.50;99.90;;;;;;4856167;29;20052;-53
2022/10/15 04:59:48;;;;;;;0.73;0.50;;;13.50;99.90;;;;;;4855162;29;20618;-53
2022/10/15 05:02:31;;;;;;;0.88;0.40;;;13.50;99.90;;;;;;4856652;29;20063;-52
2022/10/15 05:05:13;;;;;;;0.30;0.30;;;13.50;99.90;;;;;;4851808;29;20072;-55
2022/10/15 05:07:49;;;;;;;0.95;0.30;;;13.50;99.90;;;;;;4855062;29;20113;-55
2022/10/15 05:10:16;;;;;;;;;;;13.50;99.90;;;;;;4860812;29;20910;-53
2022/10/15 05:12:42;;;;;;;1.65;0.40;;;13.50;99.90;;;;;;4851734;29;19936;-51
2022/10/15 05:15:10;;;;;;;0.43;0.43;;;13.40;99.90;;;;;;4855294;29;20045;-55
2022/10/15 05:17:36;;;;;;;1.30;0.40;;;13.40;99.90;;;;;;4851504;29;20102;-54
2022/10/15 05:20:03;;;;;;;;;;;13.40;99.90;;;;;;4855396;29;20081;-55
2022/10/15 05:22:30;;;;;;;0.40;0.40;;;13.40;99.90;;;;;;4855745;29;19954;-53
2022/10/15 05:24:59;;;;;;;3.40;0.40;;;13.40;99.90;;;;;;4840312;29;20093;-57
2022/10/15 05:27:34;;;;;;;1.00;0.32;;;13.30;99.90;;;;;;4858261;29;20081;-53
2022/10/15 05:30:03;;;;;;;1.08;0.60;;;13.30;99.90;;;;;;4855724;29;20136;-55
2022/10/15 05:32:49;;;;;;;0.40;0.40;;;13.30;99.90;;;;;;4837037;29;20044;-51
2022/10/15 05:35:17;;;;;;;0.60;0.60;;;13.20;99.90;;;;;;4841971;29;20049;-53
2022/10/15 05:38:01;;;;;;;0.50;0.50;;;13.20;99.90;;;;;;4856119;29;20040;-55
2022/10/15 05:40:27;;;;;;;;;;;13.20;99.90;;;;;;4856265;29;20126;-51
2022/10/15 05:43:03;;;;;;;1.20;0.50;;;13.20;99.90;;;;;;4855271;29;20286;-54
2022/10/15 05:45:30;;;;;;;5.93;0.57;;;13.20;99.90;;;;;;4839753;29;20049;-49
2022/10/15 05:48:02;;;;;;;0.32;0.32;;;13.20;99.90;;;;;;4840792;29;20041;-53
2022/10/15 05:50:29;;;;;;;0.40;0.40;;;13.20;99.90;;;;;;4861100;29;20144;-54
2022/10/15 05:52:57;;;;;;;3.40;0.45;;;13.20;99.90;;;;;;4841243;29;20049;-47
2022/10/15 05:55:47;;;;;;;0.40;0.40;;;13.20;99.90;;;;;;4848377;29;20071;-54
2022/10/15 05:58:14;;;;;;;1.75;0.60;;;13.10;99.90;;;;;;4855899;29;20076;-52
2022/10/15 06:00:40;;;;;;;0.80;0.50;;;13.10;99.90;;;;;;4853612;29;20033;-53
2022/10/15 06:03:10;;;;;;;;;;;13.10;99.90;;;;;;4839322;29;20084;-55
2022/10/15 06:05:36;;;;;;;0.60;0.60;;;13.10;99.90;;;;;;4854018;29;19932;-53
2022/10/15 06:08:03;;;;;;;1.13;0.70;;;13.10;99.90;;;;;;4853681;29;20730;-52
2022/10/15 06:10:33;;;;;;;1.77;0.65;;;13.10;99.90;;;;;;4858066;29;20132;-54
2022/10/15 06:13:00;;;;;;;0.57;0.57;;;13.10;99.90;;;;;;4860049;29;20060;-54
2022/10/15 06:15:27;;;;;;;;;;;13.10;99.90;;;;;;4860591;29;20053;-53
2022/10/15 06:17:53;;;;;;;0.40;0.40;;;13.20;99.90;;;;;;4851626;29;20712;-52
2022/10/15 06:20:20;;;;;;;;;;;13.20;99.90;;;;;;4858921;29;20049;-55
2022/10/15 06:22:47;;;;;;;0.75;0.75;;;13.20;99.90;;;;;;4858690;29;19979;-54
2022/10/15 06:25:14;;;;;;;1.08;0.70;;;13.30;99.90;;;;;;4854875;29;20049;-51
2022/10/15 06:27:40;;;;;;;;;;;13.30;99.90;;;;;;4852926;29;20045;-55
2022/10/15 06:30:08;;;;;;;2.90;0.80;;;13.30;99.90;;;;;;4860436;29;19942;-52
2022/10/15 06:32:34;;;;;;;3.35;0.55;;;13.40;99.90;;;;;;4849807;29;20053;-50
2022/10/15 06:35:01;;;;;;;1.88;0.63;;;13.40;99.90;;;;;;4850354;29;20053;-51
2022/10/15 06:37:28;;;;;;;;;;;13.50;99.90;;;;;;4854779;29;20806;-53
2022/10/15 06:39:57;;;;;;;2.20;0.47;;;13.60;99.90;;;;;;4858161;29;19931;-52
2022/10/15 06:42:24;;;;;;;0.85;0.60;;;13.60;99.90;;;;;;4853633;29;20056;-54
2022/10/15 06:44:54;;;;;;;1.02;0.63;;;13.60;99.90;;;;;;4854534;29;20048;-51
2022/10/15 06:47:20;;;;;;;;;;;13.70;99.90;;;;;;4857386;29;20076;-51
2022/10/15 06:49:49;;;;;;;0.45;0.45;;;13.70;99.90;;;;;;4855005;29;20384;-53
2022/10/15 06:52:15;;;;;;;;;;;13.70;99.90;;;;;;4853911;29;20041;-54
2022/10/15 06:54:42;;;;;;;1.45;0.63;;;13.70;99.90;;;;;;4851469;29;20302;-50
2022/10/15 06:57:09;;;;;;;5.22;0.52;;;13.70;99.90;;;;;;4836449;29;20281;-52
2022/10/15 06:59:36;;;;;;;;;;;13.70;99.90;;;;;;4854186;29;20097;-53
2022/10/15 07:02:13;;;;;;;0.60;0.60;;;13.70;99.90;;;;;;4848409;29;19932;-52
2022/10/15 07:04:39;;;;;;;5.25;0.70;;;13.80;99.90;;;;;;4848020;29;20052;-55
2022/10/15 07:07:06;;;;;;;5.95;1.15;;;13.80;99.90;;;;;;4856836;29;20059;-53
2022/10/15 07:09:34;;;;;;;0.95;0.50;;;13.80;99.90;;;;;;4847982;29;20053;-54
2022/10/15 07:12:01;;;;;;;1.15;0.63;;;13.70;99.90;;;;;;4852913;29;20081;-55
2022/10/15 07:14:28;;;;;;;7.72;0.60;;;13.70;99.90;;;;;;4853722;29;20045;-54
2022/10/15 07:16:55;;;;;;;2.25;1.75;;;13.70;99.90;;;;;;4857184;29;20033;-52
2022/10/15 07:19:21;;;;;;;;;;;13.70;99.90;;;;;;4851017;29;20053;-51
2022/10/15 07:21:48;;;;;;;1.35;0.65;;;13.70;99.90;;;;;;4857112;29;19927;-53
2022/10/15 07:24:16;;;;;;;2.05;0.80;;;13.70;99.90;;;;;;4855068;29;20148;-54
2022/10/15 07:26:43;;;;;;;;;;;13.70;99.90;;;;;;4851548;29;20433;-55
2022/10/15 07:29:10;;;;;;;3.38;0.57;;;13.70;99.90;;;;;;4855119;29;19927;-53
2022/10/15 07:31:36;;;;;;;0.77;0.50;;;13.70;99.90;;;;;;4854998;29;20395;-54
2022/10/15 07:34:03;;;;;;;;;;;13.70;99.90;;;;;;4853757;29;20239;-52
2022/10/15 07:36:30;;;;;;;0.93;0.60;;;13.80;99.90;;;;;;4845669;29;19966;-49
2022/10/15 07:38:57;;;;;;;1.05;0.65;;;13.80;99.90;;;;;;4855640;29;20411;-53
2022/10/15 07:41:24;;;;;;;2.97;0.60;;;13.80;99.90;;;;;;4853467;29;20494;-50
2022/10/15 07:43:52;;;;;;;6.15;1.08;;;13.90;99.90;;;;;;4860302;29;20044;-50
2022/10/15 07:46:19;;;;;;;3.60;1.13;;;13.90;99.90;;;;;;4856310;29;20112;-51
2022/10/15 07:48:52;;;;;;;7.38;3.20;;;13.90;99.90;;;;;;4853025;29;20496;-47
2022/10/15 07:51:18;;;;;;;2.17;1.00;;;13.90;99.90;;;;;;4849366;29;20117;-53
2022/10/15 07:53:46;;;;;;;;;;;13.90;99.90;;;;;;4851194;29;20049;-50
2022/10/15 07:56:14;;;;;;;1.67;0.65;;;13.90;99.90;;;;;;4854873;29;19935;-50
2022/10/15 07:58:42;;;;;;;1.65;0.93;;;14.00;99.90;;;;;;4848381;29;20053;-52
2022/10/15 08:01:09;;;;;;;3.00;1.50;;;14.00;99.90;;;;;;4848910;29;20185;-53
2022/10/15 08:03:37;;;;;;;1.20;0.80;;;14.10;99.90;;;;;;4853123;29;20543;-53
2022/10/15 08:06:06;;;;;;;0.80;0.73;;;14.10;99.90;;;;;;4856764;29;20941;-51
2022/10/15 08:08:33;;;;;;;0.75;0.73;;;14.20;99.90;;;;;;4857817;29;20063;-52
2022/10/15 08:11:09;;;;;;;0.88;0.68;;;14.20;99.90;;;;;;4857631;29;20612;-51
2022/10/15 08:13:40;;;;;;;0.73;0.47;;;14.30;99.90;;;;;;4853118;29;20045;-54
2022/10/15 08:16:08;;;;;;;0.55;0.55;;;14.40;99.90;;;;;;4854399;29;20045;-52
2022/10/15 08:18:36;;;;;;;1.20;0.60;;;14.50;99.90;;;;;;4861200;29;20092;-51
2022/10/15 08:21:05;;;;;;;1.75;0.60;;;14.60;99.90;;;;;;4854582;29;20152;-53
2022/10/15 08:23:31;;;;;;;1.65;0.60;;;14.70;99.90;;;;;;4852249;29;20508;-52
2022/10/15 08:25:59;;;;;;;;;;;14.90;99.90;;;;;;4854317;29;20067;-53
2022/10/15 08:28:30;;;;;;;3.00;0.52;;;15.00;99.90;;;;;;4857182;29;20295;-52
2022/10/15 08:30:58;;;;;;;1.75;0.73;;;15.20;99.90;;;;;;4853161;29;20084;-54
2022/10/15 08:33:32;;;;;;;1.55;0.80;;;15.40;99.90;;;;;;4856659;29;20045;-50
2022/10/15 08:35:59;;;;;;;11.27;0.70;;;15.60;99.90;;;;;;4856870;29;20704;-51
2022/10/15 08:38:26;;;;;;;6.40;0.73;;;15.80;99.90;;;;;;4862759;29;20076;-51
2022/10/15 08:40:54;;;;;;;;;;;16.00;99.90;;;;;;4858218;29;20255;-50
2022/10/15 08:43:40;;;;;;;0.50;0.50;;;16.10;99.90;;;;;;4855517;29;19975;-53
2022/10/15 08:46:25;;;;;;;1.42;0.60;;;16.20;99.90;;;;;;4857657;29;20291;-51
2022/10/15 08:48:55;;;;;;;0.85;0.40;;;16.20;99.90;;;;;;4856840;29;20588;-51
2022/10/15 08:51:25;;;;;;;0.93;0.60;;;16.20;99.90;;;;;;4855514;29;20045;-53
2022/10/15 08:53:58;;;;;;;1.13;0.60;;;16.30;99.90;;;;;;4857764;29;20090;-53
2022/10/15 08:56:42;;;;;;;4.40;0.70;;;16.30;99.90;;;;;;4856603;29;20303;-48
2022/10/15 08:59:32;;;;;;;0.88;0.68;;;16.30;99.90;;;;;;4856022;29;20159;-52
2022/10/15 09:02:06;;;;;;;1.95;0.70;;;16.30;99.90;;;;;;4854395;29;20128;-56
2022/10/15 09:04:59;;;;;;;8.77;1.00;;;16.30;99.90;;;;;;4852473;29;20064;-54
2022/10/15 09:07:36;;;;;;;1.15;0.80;;;16.20;99.90;;;;;;4852801;29;20145;-53
2022/10/15 09:10:28;;;;;;;4.18;0.98;;;16.30;99.90;;;;;;4854501;29;20049;-52
2022/10/15 09:13:12;;;;;;;1.65;0.70;;;16.30;99.90;;;;;;4856660;29;20308;-54
2022/10/15 09:15:59;;;;;;;2.65;0.77;;;16.30;99.90;;;;;;4861492;29;20044;-52
2022/10/15 09:18:30;;;;;;;1.52;0.65;;;16.30;99.90;;;;;;4855538;29;20563;-53
2022/10/15 09:20:59;;;;;;;0.65;0.55;;;16.30;99.90;;;;;;4852515;29;20048;-55
2022/10/15 09:23:29;;;;;;;0.98;0.50;;;16.30;99.90;;;;;;4854935;29;20289;-55
2022/10/15 09:26:01;;;;;;;2.95;0.47;;;16.40;99.90;;;;;;4856284;29;20515;-52
2022/10/15 09:28:37;;;;;;;1.45;0.40;;;16.40;99.90;;;;;;4857462;29;20053;-52
2022/10/15 09:31:05;;;;;;;0.50;0.50;;;16.50;99.90;;;;;;4853088;29;20057;-52
2022/10/15 09:33:33;;;;;;;0.70;0.68;;;16.50;99.90;;;;;;4855480;29;20051;-53
2022/10/15 09:36:26;;;;;;;2.28;0.50;;;16.60;99.90;;;;;;4855206;29;20155;-52
2022/10/15 09:39:05;;;;;;;2.58;0.75;;;16.70;99.90;;;;;;4853880;29;20085;-53
2022/10/15 09:41:53;;;;;;;1.10;0.65;;;16.70;99.90;;;;;;4856353;29;20665;-53
2022/10/15 09:44:23;;;;;;;0.85;0.75;;;16.70;99.90;;;;;;4855015;29;20055;-54
2022/10/15 09:46:50;;;;;;;1.50;0.50;;;16.70;99.90;;;;;;4854906;29;20049;-53
2022/10/15 09:49:24;;;;;;;2.15;0.45;;;16.70;99.90;;;;;;4852322;29;20056;-50
2022/10/15 09:52:16;;;;;;;0.40;0.40;;;16.70;99.90;;;;;;4859925;29;20436;-52
2022/10/15 09:54:49;;;;;;;0.55;0.50;;;16.60;99.90;;;;;;4855446;29;20155;-53
2022/10/15 09:57:20;;;;;;;0.95;0.50;;;16.50;99.90;;;;;;4857281;29;20051;-55
2022/10/15 10:00:01;;;;;;;4.43;0.60;;;16.50;99.90;;;;;;4852989;29;20049;-54
2022/10/15 10:02:38;;;;;;;8.02;1.00;;;16.40;99.90;;;;;;4854259;29;20060;-52
2022/10/15 10:05:38;;;;;;;0.73;0.73;;;16.40;99.90;;;;;;4850984;29;20821;-52
2022/10/15 10:08:23;;;;;;;6.25;0.85;;;16.30;99.90;;;;;;4821936;29;20077;-54
2022/10/15 10:11:11;;;;;;;2.75;0.85;;;16.30;99.90;;;;;;4858087;29;20060;-53
2022/10/15 10:13:48;;;;;;;0.63;0.38;;;16.30;99.90;;;;;;4855015;29;20063;-54
2022/10/15 10:16:17;;;;;;;2.40;0.52;;;16.40;99.90;;;;;;4855195;29;20563;-52
2022/10/15 10:19:13;;;;;;;6.78;0.63;;;16.40;99.90;;;;;;4852510;29;20132;-52
2022/10/15 10:21:42;;;;;;;5.55;0.88;;;16.50;99.90;;;;;;4849236;29;20102;-55
2022/10/15 10:24:18;;;;;;;0.75;0.57;;;16.60;99.90;;;;;;4852188;29;20500;-53
2022/10/15 10:26:46;;;;;;;3.00;0.63;;;16.60;99.90;;;;;;4851729;29;20136;-53
2022/10/15 10:29:19;;;;;;;5.32;0.65;;;16.60;99.90;;;;;;4857688;29;20510;-52
2022/10/15 10:32:16;;;;;;;4.75;0.68;;;16.70;99.90;;;;;;4850262;29;20057;-52
2022/10/15 10:34:43;;;;;;;3.53;0.63;;;16.70;99.90;;;;;;4854780;29;20269;-53
2022/10/15 10:37:17;;;;;;;0.50;0.50;;;16.80;99.90;;;;;;4852129;29;20508;-54
2022/10/15 10:39:44;;;;;;;0.80;0.40;;;16.80;99.90;;;;;;4851194;29;20033;-53
2022/10/15 10:42:18;;;;;;;3.00;0.40;;;16.80;99.90;;;;;;4855741;29;20047;-58
2022/10/15 10:44:45;;;;;;;3.80;0.60;;;16.80;99.90;;;;;;4853334;29;20441;-53
2022/10/15 10:47:16;;;;;;;0.57;0.52;;;16.80;99.90;;;;;;4850921;29;20065;-53
2022/10/15 10:49:53;;;;;;;1.55;0.50;;;16.80;99.90;;;;;;4857643;29;20084;-55
2022/10/15 10:52:28;;;;;;;3.22;0.40;;;16.80;99.90;;;;;;4850325;29;20270;-49
2022/10/15 10:54:59;;;;;;;0.95;0.50;;;16.80;99.90;;;;;;4853781;29;20057;-51
2022/10/15 10:57:40;;;;;;;1.13;0.70;;;16.80;99.90;;;;;;4850964;29;20439;-52
2022/10/15 11:00:11;;;;;;;0.73;0.70;;;16.80;99.90;;;;;;4855633;29;20112;-52
2022/10/15 11:02:42;;;;;;;2.08;0.80;;;16.80;99.90;;;;;;4852120;29;20367;-54
2022/10/15 11:05:11;;;;;;;1.10;0.70;;;16.80;99.90;;;;;;4858292;29;20375;-52
2022/10/15 11:07:50;;;;;;;1.55;0.52;;;16.80;99.90;;;;;;4850539;29;20095;-55
2022/10/15 11:10:47;;;;;;;1.20;0.70;;;16.70;99.90;;;;;;4852048;29;20041;-55
2022/10/15 11:13:28;;;;;;;1.67;0.50;;;16.70;99.90;;;;;;4852200;29;20054;-51
2022/10/15 11:16:15;;;;;;;1.33;0.70;;;16.70;99.90;;;;;;4853322;29;20601;-52
2022/10/15 11:18:55;;;;;;;1.25;0.93;;;16.60;99.90;;;;;;4851857;29;20519;-54
2022/10/15 11:21:32;;;;;;;0.93;0.50;;;16.60;99.90;;;;;;4852559;29;20051;-52
2022/10/15 11:24:18;;;;;;;0.50;0.40;;;16.60;99.90;;;;;;4834822;29;20450;-54
2022/10/15 11:27:10;;;;;;;1.42;0.50;;;16.60;99.90;;;;;;4854057;29;20586;-55
2022/10/15 11:29:40;;;;;;;1.05;0.40;;;16.50;99.90;;;;;;4850533;29;20215;-55
2022/10/15 11:32:25;;;;;;;0.95;0.60;;;16.60;99.90;;;;;;4851529;29;20354;-55
2022/10/15 11:35:16;;;;;;;0.60;0.60;;;16.50;99.90;;;;;;4855503;29;20079;-54
2022/10/15 11:38:11;;;;;;;1.00;0.57;;;16.50;99.90;;;;;;4853461;29;20268;-52
2022/10/15 11:40:53;;;;;;;0.82;0.60;;;16.50;99.90;;;;;;4857795;29;20048;-54
2022/10/15 11:44:01;;;;;;;0.52;0.43;;;16.50;99.90;;;;;;4837849;29;20097;-53
2022/10/15 11:46:45;;;;;;;2.22;0.40;;;16.50;99.90;;;;;;4851861;29;20641;-53
2022/10/15 11:49:21;;;;;;;1.23;0.63;;;16.40;99.90;;;;;;4854912;29;20077;-56
2022/10/15 11:52:13;;;;;;;1.30;0.80;;;16.50;99.90;;;;;;4858757;29;20576;-54
2022/10/15 11:54:46;;;;;;;0.85;0.70;;;16.50;99.90;;;;;;4855472;29;20045;-52
2022/10/15 11:57:17;;;;;;;0.50;0.50;;;16.50;99.90;;;;;;4852636;29;20105;-54
2022/10/15 11:59:50;;;;;;;2.65;0.50;;;16.50;99.90;;;;;;4850115;29;20112;-53
2022/10/15 12:02:20;;;;;;;2.38;0.60;;;16.50;99.90;;;;;;4853273;29;20052;-52
2022/10/15 12:04:55;;;;;;;2.45;0.68;;;16.50;99.90;;;;;;4852143;29;20052;-53
2022/10/15 12:07:43;;;;;;;4.07;0.88;;;16.60;99.90;;;;;;4852761;29;20125;-51
2022/10/15 12:10:11;;;;;;;0.85;0.70;;;16.60;99.90;;;;;;4850537;29;20101;-55
2022/10/15 12:13:18;;;;;;;2.05;1.02;;;16.70;99.90;;;;;;4855741;29;20056;-55
2022/10/15 12:15:52;;;;;;;1.88;1.17;;;16.90;99.90;;;;;;4851762;29;20524;-53
2022/10/15 12:18:30;;;;;;;4.47;0.82;;;17.00;99.90;;;;;;4854761;29;20067;-51
2022/10/15 12:20:57;;;;;;;3.92;0.70;;;17.10;99.90;;;;;;4855563;29;20065;-55
2022/10/15 12:23:39;;;;;;;2.35;0.70;;;17.20;99.90;;;;;;4849424;29;20342;-54
2022/10/15 12:26:33;;;;;;;0.40;0.40;;;17.30;99.90;;;;;;4850139;29;20229;-51
2022/10/15 12:29:05;;;;;;;1.27;0.60;;;17.50;99.90;;;;;;4853330;29;20067;-55
2022/10/15 12:31:47;;;;;;;3.72;0.60;;;17.70;99.90;;;;;;4854616;29;20483;-56
2022/10/15 12:34:41;;;;;;;2.60;0.68;;;17.90;99.90;;;;;;4850139;29;20520;-53
2022/10/15 12:37:16;;;;;;;0.80;0.70;;;18.10;99.90;;;;;;4850877;29;20551;-55
2022/10/15 12:39:44;;;;;;;0.47;0.47;;;18.10;99.90;;;;;;4853988;29;20040;-54
2022/10/15 12:42:24;;;;;;;0.63;0.50;;;18.20;99.90;;;;;;4849375;29;20209;-52
2022/10/15 12:44:51;;;;;;;0.52;0.50;;;18.20;99.90;;;;;;4850851;29;20511;-52
2022/10/15 12:47:46;;;;;;;1.65;0.70;;;18.50;99.90;;;;;;4849006;29;20510;-53
2022/10/15 12:50:21;;;;;;;3.22;0.77;;;18.90;99.90;;;;;;4851306;29;20049;-54
2022/10/15 12:52:51;;;;;;;0.85;0.57;;;19.30;99.90;;;;;;4855940;29;20148;-52
2022/10/15 12:55:30;;;;;;;1.02;0.50;;;19.80;99.90;;;;;;4859289;29;20152;-57
2022/10/15 12:58:10;;;;;;;1.65;0.40;;;20.30;99.90;;;;;;4855438;29;20049;-53
2022/10/15 13:00:39;;;;;;;3.25;0.73;;;20.70;99.90;;;;;;4853598;29;20362;-51
2022/10/15 13:03:17;;;;;;;1.02;0.90;;;21.00;99.90;;;;;;4857292;29;20088;-56
2022/10/15 13:05:44;;;;;;;1.85;1.00;;;21.30;99.90;;;;;;4860796;29;20052;-52
2022/10/15 13:08:24;;;;;;;3.90;0.50;;;21.50;99.90;;;;;;4834625;29;20331;-56
2022/10/15 13:10:55;;;;;;;0.52;0.50;;;21.60;99.90;;;;;;4853309;29;20136;-53
2022/10/15 13:13:29;;;;;;;0.65;0.40;;;21.70;99.90;;;;;;4836476;29;20106;-54
2022/10/15 13:15:59;;;;;;;0.40;0.40;;;21.80;99.90;;;;;;4852540;29;20340;-54
2022/10/15 13:18:28;;;;;;;2.67;0.60;;;21.90;99.90;;;;;;4859308;29;20249;-54
2022/10/15 13:20:55;;;;;;;0.60;0.60;;;22.00;99.90;;;;;;4856287;29;20090;-52
2022/10/15 13:23:30;;;;;;;1.15;0.60;;;22.00;99.90;;;;;;4856056;29;20053;-57
2022/10/15 13:26:29;;;;;;;2.60;0.60;;;22.00;99.90;;;;;;4860426;29;20045;-54